createdAt,value
2022-09-14T00:05:07.642Z,17.30
2022-09-14T00:15:07.653Z,14.00
2022-09-14T00:25:07.652Z,15.20
2022-09-14T00:35:07.658Z,12.10
2022-09-14T00:45:07.672Z,15.30
2022-09-14T00:55:07.691Z,15.40
2022-09-14T01:05:07.680Z,14.90
2022-09-14T01:15:07.718Z,14.10
2022-09-14T01:25:07.699Z,14.20
2022-09-14T01:35:07.666Z,14.70
2022-09-14T01:45:07.691Z,15.20
2022-09-14T01:55:07.756Z,16.10
2022-09-14T02:05:07.683Z,16.20
2022-09-14T02:15:07.704Z,17.50
2022-09-14T02:25:07.697Z,16.40
2022-09-14T02:35:07.707Z,16.90
2022-09-14T02:45:07.714Z,17.90
2022-09-14T02:55:07.742Z,15.60
2022-09-14T03:05:07.720Z,15.60
2022-09-14T03:15:07.731Z,18.00
2022-09-14T03:35:07.724Z,18.50
2022-09-14T03:45:07.719Z,17.00
2022-09-14T03:55:07.776Z,21.20
2022-09-14T04:05:07.728Z,19.50
2022-09-14T04:15:07.742Z,22.30
2022-09-14T04:25:07.750Z,24.20
2022-09-14T04:35:07.757Z,23.20
2022-09-14T04:45:07.749Z,24.40
2022-09-14T04:55:07.787Z,23.30
2022-09-14T05:05:07.782Z,26.50
2022-09-14T05:15:07.763Z,25.10
2022-09-14T05:25:07.835Z,22.50
2022-09-14T05:35:07.769Z,22.20
2022-09-14T05:45:07.786Z,23.00
2022-09-14T05:55:07.815Z,18.80
2022-09-14T06:05:07.805Z,17.40
2022-09-14T06:15:07.797Z,22.90
2022-09-14T06:25:07.796Z,18.70
2022-09-14T06:35:12.226Z,20.60
2022-09-14T06:45:07.799Z,15.60
2022-09-14T06:55:07.839Z,14.30
2022-09-14T07:05:07.821Z,11.20
2022-09-14T07:15:07.807Z,9.90
2022-09-14T07:25:07.818Z,10.90
2022-09-14T07:35:07.817Z,11.10
2022-09-14T07:45:07.834Z,12.60
2022-09-14T07:55:07.869Z,9.30
2022-09-14T08:05:07.840Z,8.80
2022-09-14T08:15:07.836Z,10.50
2022-09-14T08:25:07.858Z,7.70
2022-09-14T08:35:07.846Z,10.30
2022-09-14T08:45:09.832Z,7.70
2022-09-14T08:55:07.881Z,7.30
2022-09-14T09:05:07.864Z,8.00
2022-09-14T09:15:07.865Z,7.90
2022-09-14T09:25:07.872Z,7.10
2022-09-14T09:35:07.873Z,7.00
2022-09-14T09:45:07.887Z,6.90
2022-09-14T09:55:07.906Z,7.30
2022-09-14T10:05:07.881Z,6.80
2022-09-14T10:15:07.890Z,8.10
2022-09-14T10:25:07.894Z,8.10
2022-09-14T10:35:07.896Z,6.80
2022-09-14T10:45:07.910Z,10.70
2022-09-14T10:55:07.942Z,7.50
2022-09-14T11:05:07.911Z,9.50
2022-09-14T11:15:07.923Z,7.80
2022-09-14T11:25:07.926Z,8.50
2022-09-14T11:35:07.924Z,8.10
2022-09-14T11:45:07.939Z,10.10
2022-09-14T11:55:07.967Z,8.70
2022-09-14T12:05:07.947Z,7.60
2022-09-14T12:15:07.934Z,7.30
2022-09-14T12:25:07.978Z,10.10
2022-09-14T12:35:07.946Z,10.40
2022-09-14T12:45:07.951Z,10.40
2022-09-14T12:55:08.003Z,8.60
2022-09-14T13:05:07.997Z,10.20
2022-09-14T13:15:07.972Z,9.10
2022-09-14T13:25:07.974Z,10.10
2022-09-14T13:35:07.993Z,8.00
2022-09-14T13:45:07.994Z,11.00
2022-09-14T13:55:08.034Z,9.30
2022-09-14T14:05:08.004Z,9.90
2022-09-14T14:15:08.006Z,9.00
2022-09-14T14:25:13.568Z,9.30
2022-09-14T14:35:08.007Z,8.50
2022-09-14T14:45:08.013Z,13.10
2022-09-14T14:55:08.052Z,9.60
2022-09-14T15:05:08.037Z,8.80
2022-09-14T15:15:08.025Z,10.60
2022-09-14T15:25:08.026Z,10.70
2022-09-14T15:35:08.029Z,7.70
2022-09-14T15:45:08.039Z,11.20
2022-09-14T15:55:08.082Z,11.00
2022-09-14T16:05:08.089Z,11.00
2022-09-14T16:15:08.056Z,10.90
2022-09-14T16:25:08.062Z,9.50
2022-09-14T16:35:08.494Z,10.80
2022-09-14T16:45:08.123Z,11.60
2022-09-14T16:55:08.122Z,13.50
2022-09-14T17:05:08.125Z,11.70
2022-09-14T17:15:08.130Z,14.70
2022-09-14T17:25:08.128Z,15.60
2022-09-14T17:35:08.134Z,15.40
2022-09-14T17:45:08.143Z,18.00
2022-09-14T17:55:08.512Z,18.40
2022-09-14T18:05:08.157Z,39.00
2022-09-14T18:15:08.140Z,24.40
2022-09-14T18:25:08.254Z,17.50
2022-09-14T18:35:08.180Z,17.90
2022-09-14T18:45:08.229Z,22.10
2022-09-14T18:55:08.203Z,22.00
2022-09-14T19:05:08.235Z,20.60
2022-09-14T19:15:08.192Z,22.50
2022-09-14T19:25:08.316Z,24.70
2022-09-14T19:35:08.183Z,26.00
2022-09-14T19:45:08.247Z,23.40
2022-09-14T19:55:08.164Z,25.00
2022-09-14T20:05:08.182Z,24.00
2022-09-14T20:15:08.152Z,25.20
2022-09-14T20:25:08.154Z,31.60
2022-09-14T20:35:08.161Z,23.30
2022-09-14T20:45:08.182Z,27.80
2022-09-14T20:55:08.161Z,30.60
2022-09-14T21:05:08.191Z,29.30
2022-09-14T21:15:08.170Z,31.40
2022-09-14T21:25:08.184Z,39.10
2022-09-14T21:35:08.176Z,34.60
2022-09-14T21:45:08.179Z,28.10
2022-09-14T22:05:08.229Z,32.20
2022-09-14T22:15:08.198Z,33.90
2022-09-14T22:25:08.195Z,45.30
2022-09-14T22:35:08.198Z,49.30
2022-09-14T22:45:08.207Z,31.40
2022-09-14T22:55:08.206Z,19.00
2022-09-14T23:05:08.262Z,21.90
2022-09-14T23:15:08.220Z,32.40
2022-09-14T23:25:08.217Z,23.60
2022-09-14T23:35:08.221Z,30.70
2022-09-14T23:45:08.243Z,50.90
2022-09-14T23:55:08.239Z,30.90
